sensor_id;sensor_type;location;lat;lon;timestamp;P1;durP1;ratioP1;P2;durP2;ratioP2
70138;SDS011;57507;43.056;0.150;2022-12-20T00:01:30;0.82;;;0.30;;
70138;SDS011;57507;43.056;0.150;2022-12-20T00:03:58;0.30;;;0.30;;
70138;SDS011;57507;43.056;0.150;2022-12-20T00:06:26;0.30;;;0.30;;
70138;SDS011;57507;43.056;0.150;2022-12-20T00:08:54;0.77;;;0.52;;
70138;SDS011;57507;43.056;0.150;2022-12-20T00:11:22;0.60;;;0.40;;
70138;SDS011;57507;43.056;0.150;2022-12-20T00:13:48;1.15;;;0.40;;
70138;SDS011;57507;43.056;0.150;2022-12-20T00:16:16;0.20;;;0.20;;
70138;SDS011;57507;43.056;0.150;2022-12-20T00:18:44;0.20;;;0.20;;
70138;SDS011;57507;43.056;0.150;2022-12-20T00:21:11;0.55;;;0.40;;
70138;SDS011;57507;43.056;0.150;2022-12-20T00:23:40;0.30;;;0.20;;
70138;SDS011;57507;43.056;0.150;2022-12-20T00:26:11;0.30;;;0.30;;
70138;SDS011;57507;43.056;0.150;2022-12-20T00:28:38;0.50;;;0.40;;
70138;SDS011;57507;43.056;0.150;2022-12-20T00:31:05;0.30;;;0.20;;
70138;SDS011;57507;43.056;0.150;2022-12-20T00:33:33;0.57;;;0.40;;
70138;SDS011;57507;43.056;0.150;2022-12-20T00:36:00;1.20;;;0.30;;
70138;SDS011;57507;43.056;0.150;2022-12-20T00:38:27;0.57;;;0.30;;
70138;SDS011;57507;43.056;0.150;2022-12-20T00:41:01;0.60;;;0.30;;
70138;SDS011;57507;43.056;0.150;2022-12-20T00:43:28;0.47;;;0.30;;
70138;SDS011;57507;43.056;0.150;2022-12-20T00:45:55;0.68;;;0.30;;
70138;SDS011;57507;43.056;0.150;2022-12-20T00:48:22;0.35;;;0.35;;
70138;SDS011;57507;43.056;0.150;2022-12-20T00:50:49;0.50;;;0.40;;
70138;SDS011;57507;43.056;0.150;2022-12-20T00:53:15;0.20;;;0.20;;
70138;SDS011;57507;43.056;0.150;2022-12-20T00:55:42;1.27;;;0.30;;
70138;SDS011;57507;43.056;0.150;2022-12-20T00:58:09;1.27;;;0.32;;
70138;SDS011;57507;43.056;0.150;2022-12-20T01:00:36;0.50;;;0.20;;
70138;SDS011;57507;43.056;0.150;2022-12-20T01:03:03;0.20;;;0.20;;
70138;SDS011;57507;43.056;0.150;2022-12-20T01:05:30;0.77;;;0.30;;
70138;SDS011;57507;43.056;0.150;2022-12-20T01:07:57;0.45;;;0.40;;
70138;SDS011;57507;43.056;0.150;2022-12-20T01:10:23;0.43;;;0.32;;
70138;SDS011;57507;43.056;0.150;2022-12-20T01:12:50;0.57;;;0.28;;
70138;SDS011;57507;43.056;0.150;2022-12-20T01:15:16;0.45;;;0.30;;
70138;SDS011;57507;43.056;0.150;2022-12-20T01:17:43;0.40;;;0.40;;
70138;SDS011;57507;43.056;0.150;2022-12-20T01:20:09;0.38;;;0.38;;
70138;SDS011;57507;43.056;0.150;2022-12-20T01:22:36;0.30;;;0.20;;
70138;SDS011;57507;43.056;0.150;2022-12-20T01:25:03;0.63;;;0.30;;
70138;SDS011;57507;43.056;0.150;2022-12-20T01:27:30;0.47;;;0.30;;
70138;SDS011;57507;43.056;0.150;2022-12-20T01:29:57;0.85;;;0.30;;
70138;SDS011;57507;43.056;0.150;2022-12-20T01:32:24;0.20;;;0.20;;
70138;SDS011;57507;43.056;0.150;2022-12-20T01:34:52;0.30;;;0.22;;
70138;SDS011;57507;43.056;0.150;2022-12-20T01:37:19;0.95;;;0.20;;
70138;SDS011;57507;43.056;0.150;2022-12-20T01:39:46;0.40;;;0.20;;
70138;SDS011;57507;43.056;0.150;2022-12-20T01:42:13;0.40;;;0.20;;
70138;SDS011;57507;43.056;0.150;2022-12-20T01:47:07;0.55;;;0.20;;
70138;SDS011;57507;43.056;0.150;2022-12-20T01:49:39;0.60;;;0.35;;
70138;SDS011;57507;43.056;0.150;2022-12-20T01:52:09;1.00;;;0.40;;
70138;SDS011;57507;43.056;0.150;2022-12-20T01:57:35;0.52;;;0.25;;
70138;SDS011;57507;43.056;0.150;2022-12-20T02:00:04;0.50;;;0.30;;
70138;SDS011;57507;43.056;0.150;2022-12-20T02:02:31;0.55;;;0.40;;
70138;SDS011;57507;43.056;0.150;2022-12-20T02:04:57;0.35;;;0.20;;
70138;SDS011;57507;43.056;0.150;2022-12-20T02:07:24;1.05;;;0.35;;
70138;SDS011;57507;43.056;0.150;2022-12-20T02:09:53;0.35;;;0.22;;
70138;SDS011;57507;43.056;0.150;2022-12-20T02:12:23;0.40;;;0.20;;
70138;SDS011;57507;43.056;0.150;2022-12-20T02:15:35;0.75;;;0.30;;
70138;SDS011;57507;43.056;0.150;2022-12-20T02:30:59;0.30;;;0.20;;
70138;SDS011;57507;43.056;0.150;2022-12-20T02:33:27;0.43;;;0.17;;
70138;SDS011;57507;43.056;0.150;2022-12-20T02:35:54;0.25;;;0.22;;
70138;SDS011;57507;43.056;0.150;2022-12-20T02:38:25;0.38;;;0.20;;
70138;SDS011;57507;43.056;0.150;2022-12-20T02:40:53;0.10;;;0.10;;
70138;SDS011;57507;43.056;0.150;2022-12-20T02:43:22;0.88;;;0.32;;
70138;SDS011;57507;43.056;0.150;2022-12-20T02:46:08;0.20;;;0.20;;
70138;SDS011;57507;43.056;0.150;2022-12-20T02:48:35;0.20;;;0.13;;
70138;SDS011;57507;43.056;0.150;2022-12-20T02:51:03;0.10;;;0.10;;
70138;SDS011;57507;43.056;0.150;2022-12-20T02:53:32;0.20;;;0.20;;
70138;SDS011;57507;43.056;0.150;2022-12-20T02:56:00;0.20;;;0.20;;
70138;SDS011;57507;43.056;0.150;2022-12-20T02:58:30;0.25;;;0.13;;
70138;SDS011;57507;43.056;0.150;2022-12-20T03:00:58;1.20;;;0.30;;
70138;SDS011;57507;43.056;0.150;2022-12-20T03:03:30;0.40;;;0.30;;
70138;SDS011;57507;43.056;0.150;2022-12-20T03:05:57;0.50;;;0.30;;
70138;SDS011;57507;43.056;0.150;2022-12-20T03:08:24;0.20;;;0.20;;
70138;SDS011;57507;43.056;0.150;2022-12-20T03:10:51;0.20;;;0.20;;
70138;SDS011;57507;43.056;0.150;2022-12-20T03:13:18;0.20;;;0.20;;
70138;SDS011;57507;43.056;0.150;2022-12-20T03:15:45;0.25;;;0.25;;
70138;SDS011;57507;43.056;0.150;2022-12-20T03:18:12;0.10;;;0.10;;
70138;SDS011;57507;43.056;0.150;2022-12-20T03:20:38;0.15;;;0.10;;
70138;SDS011;57507;43.056;0.150;2022-12-20T03:23:05;0.40;;;0.20;;
70138;SDS011;57507;43.056;0.150;2022-12-20T03:25:32;0.30;;;0.17;;
70138;SDS011;57507;43.056;0.150;2022-12-20T03:27:58;0.30;;;0.20;;
70138;SDS011;57507;43.056;0.150;2022-12-20T03:30:25;0.22;;;0.10;;
70138;SDS011;57507;43.056;0.150;2022-12-20T03:32:51;0.20;;;0.13;;
70138;SDS011;57507;43.056;0.150;2022-12-20T03:35:18;0.30;;;0.20;;
70138;SDS011;57507;43.056;0.150;2022-12-20T03:37:44;0.28;;;0.13;;
70138;SDS011;57507;43.056;0.150;2022-12-20T03:40:11;0.20;;;0.20;;
70138;SDS011;57507;43.056;0.150;2022-12-20T03:42:38;0.17;;;0.17;;
70138;SDS011;57507;43.056;0.150;2022-12-20T03:45:04;0.22;;;0.20;;
70138;SDS011;57507;43.056;0.150;2022-12-20T03:47:31;0.10;;;0.10;;
70138;SDS011;57507;43.056;0.150;2022-12-20T03:49:58;0.20;;;0.20;;
70138;SDS011;57507;43.056;0.150;2022-12-20T03:52:25;0.10;;;0.10;;
70138;SDS011;57507;43.056;0.150;2022-12-20T03:54:51;0.10;;;0.10;;
70138;SDS011;57507;43.056;0.150;2022-12-20T03:57:18;0.20;;;0.20;;
70138;SDS011;57507;43.056;0.150;2022-12-20T03:59:45;0.10;;;0.10;;
70138;SDS011;57507;43.056;0.150;2022-12-20T04:02:11;0.10;;;0.10;;
70138;SDS011;57507;43.056;0.150;2022-12-20T04:04:38;0.43;;;0.15;;
70138;SDS011;57507;43.056;0.150;2022-12-20T04:07:05;0.10;;;0.10;;
70138;SDS011;57507;43.056;0.150;2022-12-20T04:09:32;0.10;;;0.10;;
70138;SDS011;57507;43.056;0.150;2022-12-20T04:11:59;1.27;;;0.10;;
70138;SDS011;57507;43.056;0.150;2022-12-20T04:14:26;0.20;;;0.20;;
70138;SDS011;57507;43.056;0.150;2022-12-20T04:16:53;0.10;;;0.10;;
70138;SDS011;57507;43.056;0.150;2022-12-20T04:19:19;0.32;;;0.20;;
70138;SDS011;57507;43.056;0.150;2022-12-20T04:21:46;0.25;;;0.20;;
70138;SDS011;57507;43.056;0.150;2022-12-20T04:24:13;0.50;;;0.20;;
70138;SDS011;57507;43.056;0.150;2022-12-20T04:26:40;0.65;;;0.20;;
70138;SDS011;57507;43.056;0.150;2022-12-20T04:29:06;0.50;;;0.30;;
70138;SDS011;57507;43.056;0.150;2022-12-20T04:31:33;0.17;;;0.17;;
70138;SDS011;57507;43.056;0.150;2022-12-20T04:34:00;0.17;;;0.15;;
70138;SDS011;57507;43.056;0.150;2022-12-20T04:36:27;0.52;;;0.20;;
70138;SDS011;57507;43.056;0.150;2022-12-20T04:38:54;0.43;;;0.10;;
70138;SDS011;57507;43.056;0.150;2022-12-20T04:41:21;1.38;;;0.30;;
70138;SDS011;57507;43.056;0.150;2022-12-20T04:43:48;0.25;;;0.13;;
70138;SDS011;57507;43.056;0.150;2022-12-20T04:46:15;0.93;;;0.30;;
70138;SDS011;57507;43.056;0.150;2022-12-20T04:48:41;0.30;;;0.20;;
70138;SDS011;57507;43.056;0.150;2022-12-20T04:51:07;0.65;;;0.28;;
70138;SDS011;57507;43.056;0.150;2022-12-20T04:53:33;0.45;;;0.25;;
70138;SDS011;57507;43.056;0.150;2022-12-20T04:56:12;0.30;;;0.20;;
70138;SDS011;57507;43.056;0.150;2022-12-20T04:58:38;0.65;;;0.25;;
70138;SDS011;57507;43.056;0.150;2022-12-20T05:01:04;0.93;;;0.32;;
70138;SDS011;57507;43.056;0.150;2022-12-20T05:03:30;2.00;;;0.32;;
70138;SDS011;57507;43.056;0.150;2022-12-20T05:05:57;0.85;;;0.30;;
70138;SDS011;57507;43.056;0.150;2022-12-20T05:08:23;0.65;;;0.38;;
70138;SDS011;57507;43.056;0.150;2022-12-20T05:10:49;0.20;;;0.20;;
70138;SDS011;57507;43.056;0.150;2022-12-20T05:13:15;0.17;;;0.17;;
70138;SDS011;57507;43.056;0.150;2022-12-20T05:15:41;0.40;;;0.25;;
70138;SDS011;57507;43.056;0.150;2022-12-20T05:18:07;0.45;;;0.20;;
70138;SDS011;57507;43.056;0.150;2022-12-20T05:20:33;0.28;;;0.22;;
70138;SDS011;57507;43.056;0.150;2022-12-20T05:23:00;0.47;;;0.28;;
70138;SDS011;57507;43.056;0.150;2022-12-20T05:25:45;0.20;;;0.20;;
70138;SDS011;57507;43.056;0.150;2022-12-20T05:28:30;0.20;;;0.20;;
70138;SDS011;57507;43.056;0.150;2022-12-20T05:30:57;0.20;;;0.20;;
70138;SDS011;57507;43.056;0.150;2022-12-20T05:33:23;0.20;;;0.20;;
70138;SDS011;57507;43.056;0.150;2022-12-20T05:35:49;0.20;;;0.20;;
70138;SDS011;57507;43.056;0.150;2022-12-20T05:38:15;0.20;;;0.10;;
70138;SDS011;57507;43.056;0.150;2022-12-20T05:40:41;0.35;;;0.20;;
70138;SDS011;57507;43.056;0.150;2022-12-20T05:43:07;0.20;;;0.20;;
70138;SDS011;57507;43.056;0.150;2022-12-20T05:45:33;0.38;;;0.20;;
70138;SDS011;57507;43.056;0.150;2022-12-20T05:48:00;0.20;;;0.20;;
70138;SDS011;57507;43.056;0.150;2022-12-20T05:50:26;0.55;;;0.50;;
70138;SDS011;57507;43.056;0.150;2022-12-20T05:52:52;0.65;;;0.45;;
70138;SDS011;57507;43.056;0.150;2022-12-20T05:55:18;0.20;;;0.20;;
70138;SDS011;57507;43.056;0.150;2022-12-20T05:57:44;0.20;;;0.20;;
70138;SDS011;57507;43.056;0.150;2022-12-20T06:00:11;0.20;;;0.20;;
70138;SDS011;57507;43.056;0.150;2022-12-20T06:02:37;0.20;;;0.20;;
70138;SDS011;57507;43.056;0.150;2022-12-20T06:05:03;0.73;;;0.30;;
70138;SDS011;57507;43.056;0.150;2022-12-20T06:07:29;0.35;;;0.20;;
70138;SDS011;57507;43.056;0.150;2022-12-20T06:09:56;0.40;;;0.20;;
70138;SDS011;57507;43.056;0.150;2022-12-20T06:12:22;0.28;;;0.20;;
70138;SDS011;57507;43.056;0.150;2022-12-20T06:14:48;0.20;;;0.20;;
70138;SDS011;57507;43.056;0.150;2022-12-20T06:17:14;0.30;;;0.25;;
70138;SDS011;57507;43.056;0.150;2022-12-20T06:19:40;0.63;;;0.20;;
70138;SDS011;57507;43.056;0.150;2022-12-20T06:22:07;0.20;;;0.20;;
70138;SDS011;57507;43.056;0.150;2022-12-20T06:24:33;0.20;;;0.20;;
70138;SDS011;57507;43.056;0.150;2022-12-20T06:26:59;0.20;;;0.20;;
70138;SDS011;57507;43.056;0.150;2022-12-20T06:29:26;0.63;;;0.30;;
70138;SDS011;57507;43.056;0.150;2022-12-20T06:31:52;0.10;;;0.10;;
70138;SDS011;57507;43.056;0.150;2022-12-20T06:34:18;0.40;;;0.20;;
70138;SDS011;57507;43.056;0.150;2022-12-20T06:36:44;0.22;;;0.20;;
70138;SDS011;57507;43.056;0.150;2022-12-20T06:39:11;0.10;;;0.10;;
70138;SDS011;57507;43.056;0.150;2022-12-20T06:41:38;0.13;;;0.13;;
70138;SDS011;57507;43.056;0.150;2022-12-20T06:44:04;0.52;;;0.20;;
70138;SDS011;57507;43.056;0.150;2022-12-20T06:46:30;0.20;;;0.20;;
70138;SDS011;57507;43.056;0.150;2022-12-20T06:48:56;0.28;;;0.25;;
70138;SDS011;57507;43.056;0.150;2022-12-20T06:51:22;0.90;;;0.10;;
70138;SDS011;57507;43.056;0.150;2022-12-20T06:53:48;0.20;;;0.20;;
70138;SDS011;57507;43.056;0.150;2022-12-20T06:56:14;0.35;;;0.20;;
70138;SDS011;57507;43.056;0.150;2022-12-20T06:58:40;0.45;;;0.10;;
70138;SDS011;57507;43.056;0.150;2022-12-20T07:01:07;0.20;;;0.20;;
70138;SDS011;57507;43.056;0.150;2022-12-20T07:03:33;0.10;;;0.10;;
70138;SDS011;57507;43.056;0.150;2022-12-20T07:05:59;0.17;;;0.17;;
70138;SDS011;57507;43.056;0.150;2022-12-20T07:08:25;0.10;;;0.10;;
70138;SDS011;57507;43.056;0.150;2022-12-20T07:10:51;0.10;;;0.10;;
70138;SDS011;57507;43.056;0.150;2022-12-20T07:13:18;1.02;;;0.10;;
70138;SDS011;57507;43.056;0.150;2022-12-20T07:15:44;0.43;;;0.10;;
70138;SDS011;57507;43.056;0.150;2022-12-20T07:18:10;0.22;;;0.10;;
70138;SDS011;57507;43.056;0.150;2022-12-20T07:20:36;0.10;;;0.08;;
70138;SDS011;57507;43.056;0.150;2022-12-20T07:23:02;0.03;;;0.00;;
70138;SDS011;57507;43.056;0.150;2022-12-20T07:25:28;0.10;;;0.10;;
70138;SDS011;57507;43.056;0.150;2022-12-20T07:27:55;0.38;;;0.10;;
70138;SDS011;57507;43.056;0.150;2022-12-20T07:30:21;0.10;;;0.10;;
70138;SDS011;57507;43.056;0.150;2022-12-20T07:32:47;0.10;;;0.10;;
70138;SDS011;57507;43.056;0.150;2022-12-20T07:35:13;0.20;;;0.00;;
70138;SDS011;57507;43.056;0.150;2022-12-20T07:37:40;0.10;;;0.10;;
70138;SDS011;57507;43.056;0.150;2022-12-20T07:40:06;0.30;;;0.10;;
70138;SDS011;57507;43.056;0.150;2022-12-20T07:42:33;0.10;;;0.10;;
70138;SDS011;57507;43.056;0.150;2022-12-20T07:44:59;0.28;;;0.15;;
70138;SDS011;57507;43.056;0.150;2022-12-20T07:47:25;0.20;;;0.15;;
70138;SDS011;57507;43.056;0.150;2022-12-20T07:49:51;0.60;;;0.30;;
70138;SDS011;57507;43.056;0.150;2022-12-20T07:52:18;0.10;;;0.10;;
70138;SDS011;57507;43.056;0.150;2022-12-20T07:54:48;1.10;;;0.20;;
70138;SDS011;57507;43.056;0.150;2022-12-20T07:57:20;0.10;;;0.10;;
70138;SDS011;57507;43.056;0.150;2022-12-20T07:59:49;0.10;;;0.10;;
70138;SDS011;57507;43.056;0.150;2022-12-20T08:02:20;0.10;;;0.08;;
70138;SDS011;57507;43.056;0.150;2022-12-20T08:04:47;0.10;;;0.10;;
70138;SDS011;57507;43.056;0.150;2022-12-20T08:07:14;0.10;;;0.10;;
70138;SDS011;57507;43.056;0.150;2022-12-20T08:09:42;0.63;;;0.20;;
70138;SDS011;57507;43.056;0.150;2022-12-20T08:12:09;0.90;;;0.10;;
70138;SDS011;57507;43.056;0.150;2022-12-20T08:14:37;0.10;;;0.10;;
70138;SDS011;57507;43.056;0.150;2022-12-20T08:17:03;0.35;;;0.20;;
70138;SDS011;57507;43.056;0.150;2022-12-20T08:19:29;0.17;;;0.17;;
70138;SDS011;57507;43.056;0.150;2022-12-20T08:21:55;0.10;;;0.10;;
70138;SDS011;57507;43.056;0.150;2022-12-20T08:24:21;0.00;;;0.00;;
70138;SDS011;57507;43.056;0.150;2022-12-20T08:26:47;0.10;;;0.10;;
70138;SDS011;57507;43.056;0.150;2022-12-20T08:29:13;0.20;;;0.20;;
70138;SDS011;57507;43.056;0.150;2022-12-20T08:31:39;0.13;;;0.13;;
70138;SDS011;57507;43.056;0.150;2022-12-20T08:34:09;0.17;;;0.17;;
70138;SDS011;57507;43.056;0.150;2022-12-20T08:36:35;0.10;;;0.10;;
70138;SDS011;57507;43.056;0.150;2022-12-20T08:39:02;0.03;;;0.03;;
70138;SDS011;57507;43.056;0.150;2022-12-20T08:41:28;0.60;;;0.20;;
70138;SDS011;57507;43.056;0.150;2022-12-20T08:43:54;0.10;;;0.10;;
70138;SDS011;57507;43.056;0.150;2022-12-20T08:46:20;0.10;;;0.10;;
70138;SDS011;57507;43.056;0.150;2022-12-20T08:48:46;0.13;;;0.13;;
70138;SDS011;57507;43.056;0.150;2022-12-20T08:51:12;0.10;;;0.10;;
70138;SDS011;57507;43.056;0.150;2022-12-20T08:53:38;0.00;;;0.00;;
70138;SDS011;57507;43.056;0.150;2022-12-20T08:56:11;0.10;;;0.10;;
70138;SDS011;57507;43.056;0.150;2022-12-20T08:58:37;0.10;;;0.10;;
70138;SDS011;57507;43.056;0.150;2022-12-20T09:01:05;0.10;;;0.10;;
70138;SDS011;57507;43.056;0.150;2022-12-20T09:03:31;1.45;;;0.10;;
70138;SDS011;57507;43.056;0.150;2022-12-20T09:05:58;0.10;;;0.10;;
70138;SDS011;57507;43.056;0.150;2022-12-20T09:08:24;0.10;;;0.10;;
70138;SDS011;57507;43.056;0.150;2022-12-20T09:10:51;1.10;;;0.10;;
70138;SDS011;57507;43.056;0.150;2022-12-20T09:13:17;0.50;;;0.40;;
70138;SDS011;57507;43.056;0.150;2022-12-20T09:15:45;1.05;;;0.32;;
70138;SDS011;57507;43.056;0.150;2022-12-20T09:18:11;2.72;;;0.38;;
70138;SDS011;57507;43.056;0.150;2022-12-20T09:20:43;0.68;;;0.30;;
70138;SDS011;57507;43.056;0.150;2022-12-20T09:23:09;3.03;;;0.30;;
70138;SDS011;57507;43.056;0.150;2022-12-20T09:25:35;1.38;;;0.40;;
70138;SDS011;57507;43.056;0.150;2022-12-20T09:28:02;1.60;;;0.50;;
70138;SDS011;57507;43.056;0.150;2022-12-20T09:30:28;0.43;;;0.35;;
70138;SDS011;57507;43.056;0.150;2022-12-20T09:32:54;0.77;;;0.40;;
70138;SDS011;57507;43.056;0.150;2022-12-20T09:35:21;4.13;;;1.25;;
70138;SDS011;57507;43.056;0.150;2022-12-20T09:37:47;4.75;;;0.90;;
70138;SDS011;57507;43.056;0.150;2022-12-20T09:40:14;2.90;;;0.93;;
70138;SDS011;57507;43.056;0.150;2022-12-20T09:42:42;2.65;;;0.70;;
70138;SDS011;57507;43.056;0.150;2022-12-20T09:45:08;1.05;;;0.70;;
70138;SDS011;57507;43.056;0.150;2022-12-20T09:47:35;2.30;;;0.80;;
70138;SDS011;57507;43.056;0.150;2022-12-20T09:50:02;1.98;;;0.65;;
70138;SDS011;57507;43.056;0.150;2022-12-20T10:00:17;4.20;;;0.75;;
70138;SDS011;57507;43.056;0.150;2022-12-20T10:02:44;2.20;;;0.60;;
70138;SDS011;57507;43.056;0.150;2022-12-20T10:05:18;1.90;;;0.85;;
70138;SDS011;57507;43.056;0.150;2022-12-20T10:15:32;0.60;;;0.30;;
70138;SDS011;57507;43.056;0.150;2022-12-20T10:20:43;0.60;;;0.30;;
70138;SDS011;57507;43.056;0.150;2022-12-20T10:25:53;0.50;;;0.38;;
70138;SDS011;57507;43.056;0.150;2022-12-20T10:28:23;0.98;;;0.40;;
70138;SDS011;57507;43.056;0.150;2022-12-20T10:30:50;0.25;;;0.20;;
70138;SDS011;57507;43.056;0.150;2022-12-20T10:33:20;0.50;;;0.40;;
70138;SDS011;57507;43.056;0.150;2022-12-20T10:35:47;0.75;;;0.40;;
70138;SDS011;57507;43.056;0.150;2022-12-20T10:38:14;0.35;;;0.20;;
70138;SDS011;57507;43.056;0.150;2022-12-20T10:43:18;2.13;;;0.40;;
70138;SDS011;57507;43.056;0.150;2022-12-20T10:45:52;0.85;;;0.45;;
70138;SDS011;57507;43.056;0.150;2022-12-20T10:48:37;0.45;;;0.35;;
70138;SDS011;57507;43.056;0.150;2022-12-20T10:53:57;0.45;;;0.20;;
70138;SDS011;57507;43.056;0.150;2022-12-20T10:58:52;0.73;;;0.22;;
70138;SDS011;57507;43.056;0.150;2022-12-20T11:01:19;1.23;;;0.30;;
70138;SDS011;57507;43.056;0.150;2022-12-20T11:03:52;0.43;;;0.20;;
70138;SDS011;57507;43.056;0.150;2022-12-20T11:06:20;1.55;;;0.28;;
70138;SDS011;57507;43.056;0.150;2022-12-20T11:08:46;0.40;;;0.20;;
70138;SDS011;57507;43.056;0.150;2022-12-20T11:11:14;0.70;;;0.40;;
70138;SDS011;57507;43.056;0.150;2022-12-20T11:13:42;0.47;;;0.38;;
70138;SDS011;57507;43.056;0.150;2022-12-20T11:16:54;0.30;;;0.30;;
70138;SDS011;57507;43.056;0.150;2022-12-20T11:19:05;1.10;;;0.22;;
70138;SDS011;57507;43.056;0.150;2022-12-20T11:21:43;0.22;;;0.22;;
70138;SDS011;57507;43.056;0.150;2022-12-20T11:27:15;1.25;;;0.20;;
70138;SDS011;57507;43.056;0.150;2022-12-20T11:32:21;0.30;;;0.10;;
70138;SDS011;57507;43.056;0.150;2022-12-20T11:34:58;0.30;;;0.10;;
70138;SDS011;57507;43.056;0.150;2022-12-20T11:37:26;0.20;;;0.20;;
70138;SDS011;57507;43.056;0.150;2022-12-20T11:40:15;1.25;;;0.30;;
70138;SDS011;57507;43.056;0.150;2022-12-20T11:53:04;1.08;;;0.20;;
70138;SDS011;57507;43.056;0.150;2022-12-20T11:55:30;0.47;;;0.30;;
70138;SDS011;57507;43.056;0.150;2022-12-20T11:58:11;0.35;;;0.25;;
70138;SDS011;57507;43.056;0.150;2022-12-20T12:00:39;0.40;;;0.20;;
70138;SDS011;57507;43.056;0.150;2022-12-20T12:05:42;0.32;;;0.20;;
70138;SDS011;57507;43.056;0.150;2022-12-20T12:08:11;0.70;;;0.30;;
70138;SDS011;57507;43.056;0.150;2022-12-20T12:10:40;0.32;;;0.20;;
70138;SDS011;57507;43.056;0.150;2022-12-20T12:18:19;0.90;;;0.30;;
70138;SDS011;57507;43.056;0.150;2022-12-20T12:23:15;1.33;;;0.30;;
70138;SDS011;57507;43.056;0.150;2022-12-20T12:25:44;1.02;;;0.30;;
70138;SDS011;57507;43.056;0.150;2022-12-20T12:28:11;0.38;;;0.30;;
70138;SDS011;57507;43.056;0.150;2022-12-20T12:30:38;0.20;;;0.20;;
70138;SDS011;57507;43.056;0.150;2022-12-20T12:33:09;0.30;;;0.20;;
70138;SDS011;57507;43.056;0.150;2022-12-20T12:35:55;0.73;;;0.35;;
70138;SDS011;57507;43.056;0.150;2022-12-20T12:46:12;0.77;;;0.38;;
70138;SDS011;57507;43.056;0.150;2022-12-20T12:51:20;0.52;;;0.52;;
70138;SDS011;57507;43.056;0.150;2022-12-20T12:53:49;0.40;;;0.20;;
70138;SDS011;57507;43.056;0.150;2022-12-20T13:11:55;0.98;;;0.40;;
70138;SDS011;57507;43.056;0.150;2022-12-20T13:16:47;0.75;;;0.57;;
70138;SDS011;57507;43.056;0.150;2022-12-20T13:24:35;2.47;;;0.80;;
70138;SDS011;57507;43.056;0.150;2022-12-20T13:27:15;1.77;;;0.60;;
70138;SDS011;57507;43.056;0.150;2022-12-20T13:35:29;0.82;;;0.60;;
70138;SDS011;57507;43.056;0.150;2022-12-20T13:45:42;4.68;;;1.38;;
70138;SDS011;57507;43.056;0.150;2022-12-20T13:48:11;3.22;;;1.33;;
70138;SDS011;57507;43.056;0.150;2022-12-20T13:50:46;2.22;;;1.40;;
70138;SDS011;57507;43.056;0.150;2022-12-20T13:53:15;2.30;;;1.70;;
70138;SDS011;57507;43.056;0.150;2022-12-20T13:55:42;3.45;;;2.20;;
70138;SDS011;57507;43.056;0.150;2022-12-20T13:58:13;2.97;;;2.03;;
70138;SDS011;57507;43.056;0.150;2022-12-20T14:00:41;3.35;;;2.40;;
70138;SDS011;57507;43.056;0.150;2022-12-20T14:03:28;3.63;;;2.47;;
70138;SDS011;57507;43.056;0.150;2022-12-20T14:06:00;3.13;;;2.30;;
70138;SDS011;57507;43.056;0.150;2022-12-20T14:08:30;3.80;;;2.63;;
70138;SDS011;57507;43.056;0.150;2022-12-20T14:11:08;4.70;;;2.80;;
70138;SDS011;57507;43.056;0.150;2022-12-20T14:13:34;4.13;;;2.80;;
70138;SDS011;57507;43.056;0.150;2022-12-20T14:16:11;4.32;;;2.80;;
70138;SDS011;57507;43.056;0.150;2022-12-20T14:18:38;3.65;;;2.80;;
70138;SDS011;57507;43.056;0.150;2022-12-20T14:21:04;5.32;;;3.53;;
70138;SDS011;57507;43.056;0.150;2022-12-20T14:23:35;5.32;;;3.63;;
70138;SDS011;57507;43.056;0.150;2022-12-20T14:26:02;4.13;;;2.97;;
70138;SDS011;57507;43.056;0.150;2022-12-20T14:31:01;4.28;;;3.30;;
70138;SDS011;57507;43.056;0.150;2022-12-20T14:35:57;4.93;;;3.45;;
70138;SDS011;57507;43.056;0.150;2022-12-20T14:38:32;5.70;;;3.42;;
70138;SDS011;57507;43.056;0.150;2022-12-20T14:40:58;6.43;;;3.83;;
70138;SDS011;57507;43.056;0.150;2022-12-20T14:43:26;4.47;;;3.00;;
70138;SDS011;57507;43.056;0.150;2022-12-20T14:48:37;5.85;;;3.17;;
70138;SDS011;57507;43.056;0.150;2022-12-20T14:51:04;4.97;;;3.03;;
70138;SDS011;57507;43.056;0.150;2022-12-20T14:53:30;6.05;;;3.35;;
70138;SDS011;57507;43.056;0.150;2022-12-20T14:55:56;5.30;;;3.33;;
70138;SDS011;57507;43.056;0.150;2022-12-20T14:58:24;5.88;;;3.33;;
70138;SDS011;57507;43.056;0.150;2022-12-20T15:00:55;6.18;;;3.47;;
70138;SDS011;57507;43.056;0.150;2022-12-20T15:03:22;4.65;;;2.78;;
70138;SDS011;57507;43.056;0.150;2022-12-20T15:05:49;5.30;;;3.30;;
70138;SDS011;57507;43.056;0.150;2022-12-20T15:13:18;4.07;;;3.03;;
70138;SDS011;57507;43.056;0.150;2022-12-20T15:15:44;4.43;;;3.05;;
70138;SDS011;57507;43.056;0.150;2022-12-20T15:18:15;4.05;;;3.13;;
70138;SDS011;57507;43.056;0.150;2022-12-20T15:20:42;9.23;;;3.50;;
70138;SDS011;57507;43.056;0.150;2022-12-20T15:23:12;4.65;;;3.13;;
70138;SDS011;57507;43.056;0.150;2022-12-20T15:25:39;5.40;;;3.20;;
70138;SDS011;57507;43.056;0.150;2022-12-20T15:28:13;4.78;;;2.85;;
70138;SDS011;57507;43.056;0.150;2022-12-20T15:30:42;5.20;;;3.10;;
70138;SDS011;57507;43.056;0.150;2022-12-20T15:33:13;5.25;;;3.17;;
70138;SDS011;57507;43.056;0.150;2022-12-20T15:35:40;4.90;;;2.92;;
70138;SDS011;57507;43.056;0.150;2022-12-20T15:38:10;3.72;;;2.40;;
70138;SDS011;57507;43.056;0.150;2022-12-20T15:40:38;5.78;;;2.33;;
70138;SDS011;57507;43.056;0.150;2022-12-20T15:43:04;3.75;;;2.60;;
70138;SDS011;57507;43.056;0.150;2022-12-20T15:45:30;4.20;;;2.55;;
70138;SDS011;57507;43.056;0.150;2022-12-20T15:47:57;4.20;;;2.88;;
70138;SDS011;57507;43.056;0.150;2022-12-20T15:50:23;4.13;;;2.60;;
70138;SDS011;57507;43.056;0.150;2022-12-20T15:52:49;5.88;;;2.40;;
70138;SDS011;57507;43.056;0.150;2022-12-20T15:55:16;3.47;;;2.13;;
70138;SDS011;57507;43.056;0.150;2022-12-20T15:57:42;3.40;;;2.38;;
70138;SDS011;57507;43.056;0.150;2022-12-20T16:00:08;5.07;;;2.50;;
70138;SDS011;57507;43.056;0.150;2022-12-20T16:02:34;4.38;;;2.80;;
70138;SDS011;57507;43.056;0.150;2022-12-20T16:05:01;5.20;;;3.00;;
70138;SDS011;57507;43.056;0.150;2022-12-20T16:07:27;4.43;;;2.90;;
70138;SDS011;57507;43.056;0.150;2022-12-20T16:09:53;5.05;;;3.40;;
70138;SDS011;57507;43.056;0.150;2022-12-20T16:12:27;8.25;;;4.28;;
70138;SDS011;57507;43.056;0.150;2022-12-20T16:14:53;6.57;;;3.97;;
70138;SDS011;57507;43.056;0.150;2022-12-20T16:17:19;8.57;;;4.88;;
70138;SDS011;57507;43.056;0.150;2022-12-20T16:19:46;8.73;;;4.82;;
70138;SDS011;57507;43.056;0.150;2022-12-20T16:22:19;8.30;;;5.05;;
70138;SDS011;57507;43.056;0.150;2022-12-20T16:24:46;9.77;;;5.80;;
70138;SDS011;57507;43.056;0.150;2022-12-20T16:27:12;9.93;;;6.40;;
70138;SDS011;57507;43.056;0.150;2022-12-20T16:29:38;10.70;;;6.40;;
70138;SDS011;57507;43.056;0.150;2022-12-20T16:32:12;9.48;;;5.50;;
70138;SDS011;57507;43.056;0.150;2022-12-20T16:34:39;9.25;;;5.28;;
70138;SDS011;57507;43.056;0.150;2022-12-20T16:37:05;10.32;;;6.25;;
70138;SDS011;57507;43.056;0.150;2022-12-20T16:39:31;9.50;;;5.35;;
70138;SDS011;57507;43.056;0.150;2022-12-20T16:41:57;8.55;;;5.40;;
70138;SDS011;57507;43.056;0.150;2022-12-20T16:44:25;9.95;;;5.78;;
70138;SDS011;57507;43.056;0.150;2022-12-20T16:46:51;12.13;;;6.57;;
70138;SDS011;57507;43.056;0.150;2022-12-20T16:49:17;10.48;;;6.13;;
70138;SDS011;57507;43.056;0.150;2022-12-20T16:51:44;11.25;;;6.75;;
70138;SDS011;57507;43.056;0.150;2022-12-20T16:54:18;8.82;;;5.60;;
70138;SDS011;57507;43.056;0.150;2022-12-20T16:56:44;7.65;;;5.68;;
70138;SDS011;57507;43.056;0.150;2022-12-20T16:59:29;10.45;;;5.63;;
70138;SDS011;57507;43.056;0.150;2022-12-20T17:01:55;9.25;;;6.13;;
70138;SDS011;57507;43.056;0.150;2022-12-20T17:04:21;12.20;;;6.15;;
70138;SDS011;57507;43.056;0.150;2022-12-20T17:06:47;10.93;;;6.38;;